Time;durP1;ratioP1;P1;durP2;ratioP2;P2;SDS_P1;SDS_P2;PMS_P1;PMS_P2;Temp;Humidity;BMP_temperature;BMP_pressure;BME280_temperature;BME280_humidity;BME280_pressure;Samples;Min_cycle;Max_cycle;Signal;HPM_P1;HPM_P2
2021/06/16 00:00:20;;;;;;;6.70;6.00;;;17.30;99.90;;;;;;506146;235;28889;-68
2021/06/16 00:02:21;;;;;;;7.60;5.57;;;17.20;99.90;;;;;;506155;235;28826;-66
2021/06/16 00:04:22;;;;;;;5.70;5.20;;;17.20;99.90;;;;;;506145;235;28794;-66
2021/06/16 00:06:24;;;;;;;6.53;6.00;;;17.10;99.90;;;;;;506108;235;28836;-65
2021/06/16 00:08:25;;;;;;;6.77;5.57;;;17.20;99.90;;;;;;506088;235;28852;-65
2021/06/16 00:10:26;;;;;;;5.77;5.27;;;17.20;99.90;;;;;;506141;235;28861;-67
2021/06/16 00:12:27;;;;;;;6.30;5.70;;;17.20;99.90;;;;;;506096;235;29211;-65
2021/06/16 00:14:29;;;;;;;6.83;6.23;;;17.20;99.90;;;;;;506107;235;29321;-66
2021/06/16 00:16:30;;;;;;;8.10;6.33;;;17.20;99.90;;;;;;506073;235;29272;-65
2021/06/16 00:18:31;;;;;;;5.50;4.90;;;17.20;99.90;;;;;;506105;235;29318;-65
2021/06/16 00:20:32;;;;;;;6.90;6.20;;;17.10;99.90;;;;;;505978;235;28757;-65
2021/06/16 00:22:34;;;;;;;6.50;5.83;;;17.10;99.90;;;;;;506138;235;28735;-65
2021/06/16 00:24:35;;;;;;;9.10;6.10;;;17.00;99.90;;;;;;506089;235;28788;-65
2021/06/16 00:26:36;;;;;;;6.27;5.70;;;17.00;99.90;;;;;;506097;235;28751;-65
2021/06/16 00:28:37;;;;;;;8.43;6.60;;;17.00;99.90;;;;;;506103;235;28789;-66
2021/06/16 00:30:39;;;;;;;8.67;6.40;;;17.00;99.90;;;;;;506092;235;28783;-66
2021/06/16 00:32:41;;;;;;;5.47;5.03;;;17.00;99.90;;;;;;506082;235;28780;-65
2021/06/16 00:34:41;;;;;;;6.77;5.77;;;17.10;99.90;;;;;;506059;235;28788;-67
2021/06/16 00:36:42;;;;;;;6.87;6.17;;;17.10;99.90;;;;;;506088;235;29258;-65
2021/06/16 00:38:44;;;;;;;6.27;5.67;;;17.20;99.90;;;;;;506095;235;29218;-65
2021/06/16 00:40:45;;;;;;;8.80;7.07;;;17.20;99.90;;;;;;506079;235;29190;-65
2021/06/16 00:42:46;;;;;;;6.57;5.50;;;17.20;99.90;;;;;;506120;235;29207;-65
2021/06/16 00:44:47;;;;;;;8.40;5.60;;;17.30;99.90;;;;;;506090;235;28782;-66
2021/06/16 00:46:49;;;;;;;9.37;6.37;;;17.30;99.90;;;;;;506064;235;28751;-65
2021/06/16 00:48:50;;;;;;;6.80;6.10;;;17.30;99.90;;;;;;506081;235;28847;-66
2021/06/16 00:50:51;;;;;;;9.40;6.40;;;17.30;99.90;;;;;;506093;235;28735;-66
2021/06/16 00:52:52;;;;;;;6.57;5.93;;;17.20;99.90;;;;;;506122;235;28850;-65
2021/06/16 00:54:54;;;;;;;7.00;5.63;;;17.20;99.90;;;;;;506080;235;28776;-67
2021/06/16 00:56:55;;;;;;;6.77;5.90;;;17.10;99.90;;;;;;506109;235;28814;-66
2021/06/16 00:58:56;;;;;;;7.70;6.60;;;17.10;99.90;;;;;;506094;235;28777;-66
2021/06/16 01:00:57;;;;;;;6.83;6.03;;;17.10;99.90;;;;;;506093;235;29215;-65
2021/06/16 01:02:59;;;;;;;7.40;6.70;;;17.10;99.90;;;;;;506040;235;29172;-65
2021/06/16 01:05:00;;;;;;;7.43;6.63;;;17.10;99.90;;;;;;506115;235;29331;-67
2021/06/16 01:07:01;;;;;;;7.17;6.00;;;17.10;99.90;;;;;;506091;235;29199;-65
2021/06/16 01:09:02;;;;;;;8.03;6.33;;;17.10;99.90;;;;;;506120;235;28747;-66
2021/06/16 01:11:04;;;;;;;7.13;6.33;;;17.10;99.90;;;;;;506073;235;28880;-65
2021/06/16 01:13:05;;;;;;;7.83;5.73;;;17.20;99.90;;;;;;506127;235;28746;-66
2021/06/16 01:15:06;;;;;;;6.97;5.57;;;17.20;99.90;;;;;;506084;235;28755;-67
2021/06/16 01:17:07;;;;;;;6.60;6.00;;;17.10;99.90;;;;;;506092;235;28721;-67
2021/06/16 01:19:09;;;;;;;6.83;5.83;;;17.10;99.90;;;;;;506121;235;28755;-65
2021/06/16 01:21:10;;;;;;;7.87;7.07;;;17.10;99.90;;;;;;506111;235;28898;-65
2021/06/16 01:23:11;;;;;;;6.93;6.23;;;17.10;99.90;;;;;;506092;235;28761;-65
2021/06/16 01:25:12;;;;;;;8.90;6.63;;;17.10;99.90;;;;;;506124;235;28768;-66
2021/06/16 01:27:14;;;;;;;7.27;6.63;;;17.00;99.90;;;;;;506068;235;29283;-65
2021/06/16 01:29:15;;;;;;;7.30;6.60;;;17.00;99.90;;;;;;506105;235;29280;-66
2021/06/16 01:31:16;;;;;;;7.13;6.43;;;16.90;99.90;;;;;;506073;235;30013;-65
2021/06/16 01:33:17;;;;;;;6.67;6.03;;;16.90;99.90;;;;;;506136;235;28735;-65
2021/06/16 01:35:19;;;;;;;7.50;6.00;;;17.00;99.90;;;;;;506132;235;28767;-66
2021/06/16 01:37:20;;;;;;;7.07;6.47;;;17.00;99.90;;;;;;506091;235;28919;-65
2021/06/16 01:39:21;;;;;;;7.83;6.67;;;17.10;99.90;;;;;;506107;235;28783;-65
2021/06/16 01:41:22;;;;;;;7.87;6.17;;;17.00;99.90;;;;;;506060;235;28747;-65
2021/06/16 01:43:24;;;;;;;6.73;6.03;;;17.00;99.90;;;;;;506130;235;28832;-66
2021/06/16 01:45:25;;;;;;;8.13;6.53;;;17.00;99.90;;;;;;506131;235;28858;-66
2021/06/16 01:47:26;;;;;;;9.03;6.67;;;16.90;99.90;;;;;;506100;235;28895;-65
2021/06/16 01:49:27;;;;;;;8.33;7.00;;;17.00;99.90;;;;;;506110;235;28757;-65
2021/06/16 01:51:29;;;;;;;8.23;7.40;;;17.00;99.90;;;;;;506121;235;29760;-67
2021/06/16 01:53:30;;;;;;;8.47;7.07;;;16.90;99.90;;;;;;506133;235;29349;-65
2021/06/16 01:55:31;;;;;;;6.60;6.00;;;16.80;99.90;;;;;;506119;235;29247;-65
2021/06/16 01:57:32;;;;;;;7.33;6.63;;;16.80;99.90;;;;;;506085;235;28761;-65
2021/06/16 01:59:34;;;;;;;8.40;7.00;;;16.80;99.90;;;;;;506075;235;28783;-65
2021/06/16 02:01:35;;;;;;;9.93;6.17;;;16.80;99.90;;;;;;506100;235;28796;-65
2021/06/16 02:03:36;;;;;;;6.80;6.17;;;16.70;99.90;;;;;;506090;235;28851;-65
2021/06/16 02:05:37;;;;;;;13.50;7.30;;;16.80;99.90;;;;;;506096;235;28762;-67
2021/06/16 02:07:39;;;;;;;8.63;7.07;;;16.80;99.90;;;;;;506071;235;28747;-65
2021/06/16 02:09:40;;;;;;;7.17;6.47;;;16.70;99.90;;;;;;506084;235;28875;-65
2021/06/16 02:11:41;;;;;;;9.20;7.00;;;16.70;99.90;;;;;;506066;235;28849;-65
2021/06/16 02:13:43;;;;;;;8.37;7.57;;;16.70;99.90;;;;;;506061;235;28741;-65
2021/06/16 02:15:44;;;;;;;8.23;7.43;;;16.70;99.90;;;;;;506096;235;29255;-66
2021/06/16 02:17:45;;;;;;;8.97;7.43;;;16.60;99.90;;;;;;506105;235;29282;-66
2021/06/16 02:19:46;;;;;;;9.03;7.43;;;16.60;99.90;;;;;;506112;235;29352;-66
2021/06/16 02:21:48;;;;;;;10.47;8.13;;;16.60;99.90;;;;;;506092;235;28775;-65
2021/06/16 02:23:49;;;;;;;8.60;7.67;;;16.60;99.90;;;;;;506139;235;28816;-66
2021/06/16 02:25:50;;;;;;;8.80;7.37;;;16.60;99.90;;;;;;506088;235;28803;-66
2021/06/16 02:27:51;;;;;;;7.30;6.60;;;16.60;99.90;;;;;;506099;235;28758;-65
2021/06/16 02:29:53;;;;;;;10.83;7.30;;;16.60;99.90;;;;;;506078;235;28795;-66
2021/06/16 02:31:54;;;;;;;8.70;7.60;;;16.50;99.90;;;;;;506083;235;28799;-66
2021/06/16 02:33:55;;;;;;;7.57;6.83;;;16.40;99.90;;;;;;506152;235;28740;-65
2021/06/16 02:35:56;;;;;;;8.20;7.40;;;16.50;99.90;;;;;;506138;235;28798;-66
2021/06/16 02:37:58;;;;;;;8.80;7.90;;;16.50;99.90;;;;;;506131;235;29169;-65
2021/06/16 02:39:59;;;;;;;8.80;7.90;;;16.50;99.90;;;;;;506096;235;29248;-65
2021/06/16 02:42:00;;;;;;;14.30;8.40;;;16.50;99.90;;;;;;506102;235;29408;-65
2021/06/16 02:44:01;;;;;;;8.13;7.33;;;16.60;99.90;;;;;;506084;235;28821;-66
2021/06/16 02:46:03;;;;;;;8.77;7.93;;;16.50;99.90;;;;;;506122;235;28768;-67
2021/06/16 02:48:04;;;;;;;12.70;7.57;;;16.60;99.90;;;;;;506091;235;28823;-65
2021/06/16 02:50:05;;;;;;;6.90;6.30;;;16.60;99.90;;;;;;506095;235;28799;-66
2021/06/16 02:52:06;;;;;;;7.43;6.77;;;16.50;99.90;;;;;;506076;235;28724;-65
2021/06/16 02:54:09;;;;;;;12.40;8.23;;;16.40;99.90;;;;;;506073;235;28768;-65
2021/06/16 02:56:09;;;;;;;9.30;7.60;;;16.40;99.90;;;;;;506063;235;28853;-67
2021/06/16 02:58:10;;;;;;;8.10;7.40;;;16.40;99.90;;;;;;506098;235;28799;-65
2021/06/16 03:00:11;;;;;;;8.40;7.60;;;16.40;99.90;;;;;;506072;235;29322;-65
2021/06/16 03:02:13;;;;;;;7.43;6.80;;;16.40;99.90;;;;;;506037;235;29287;-66
2021/06/16 03:04:14;;;;;;;8.73;7.93;;;16.40;99.90;;;;;;506015;235;29283;-65
2021/06/16 03:06:16;;;;;;;8.10;7.23;;;16.40;99.90;;;;;;506086;235;29334;-67
2021/06/16 03:08:16;;;;;;;9.40;8.27;;;16.40;99.90;;;;;;506101;235;28838;-65
2021/06/16 03:10:18;;;;;;;7.60;6.90;;;16.30;99.90;;;;;;506042;235;28804;-65
2021/06/16 03:12:19;;;;;;;9.33;7.73;;;16.30;99.90;;;;;;505976;235;28728;-65
2021/06/16 03:14:20;;;;;;;9.40;8.40;;;16.30;99.90;;;;;;506066;235;28795;-65
2021/06/16 03:16:21;;;;;;;8.87;7.97;;;16.20;99.90;;;;;;506127;235;28771;-65
2021/06/16 03:18:23;;;;;;;10.27;8.10;;;16.00;99.90;;;;;;506118;235;28823;-65
2021/06/16 03:20:24;;;;;;;8.63;7.80;;;15.90;99.90;;;;;;506073;235;28770;-66
2021/06/16 03:22:25;;;;;;;9.70;7.60;;;15.90;99.90;;;;;;506070;235;28800;-65
2021/06/16 03:24:26;;;;;;;7.93;7.20;;;15.80;99.90;;;;;;506099;235;29217;-65
2021/06/16 03:26:28;;;;;;;8.20;7.40;;;15.90;99.90;;;;;;506087;235;29260;-67
2021/06/16 03:28:29;;;;;;;7.53;6.70;;;16.00;99.90;;;;;;506093;235;29223;-64
2021/06/16 03:30:30;;;;;;;8.27;7.47;;;16.00;99.90;;;;;;506117;235;29308;-65
2021/06/16 03:32:31;;;;;;;8.17;7.40;;;16.00;99.90;;;;;;506067;235;28726;-65
2021/06/16 03:34:33;;;;;;;8.53;7.73;;;15.90;99.90;;;;;;506059;235;28799;-66
2021/06/16 03:36:34;;;;;;;11.43;8.37;;;15.90;99.90;;;;;;506134;235;28827;-66
2021/06/16 03:38:35;;;;;;;8.80;7.43;;;15.90;99.90;;;;;;506101;235;28740;-65
2021/06/16 03:40:36;;;;;;;8.60;7.70;;;15.90;99.90;;;;;;506055;235;28779;-66
2021/06/16 03:42:38;;;;;;;9.87;8.00;;;15.90;99.90;;;;;;506099;235;28761;-65
2021/06/16 03:44:39;;;;;;;7.73;7.03;;;15.90;99.90;;;;;;506089;235;28837;-65
2021/06/16 03:48:44;;;;;;;11.00;7.50;;;16.00;99.90;;;;;;465943;245;28909;-68
2021/06/16 03:50:45;;;;;;;8.90;8.00;;;15.90;99.90;;;;;;447195;266;28915;-66
2021/06/16 03:52:47;;;;;;;8.50;7.70;;;16.00;99.90;;;;;;450053;264;29029;-66
2021/06/16 03:54:48;;;;;;;9.23;8.10;;;16.10;99.90;;;;;;447176;265;28902;-65
2021/06/16 03:56:49;;;;;;;8.93;8.10;;;16.10;99.90;;;;;;450027;264;28974;-65
2021/06/16 03:58:50;;;;;;;9.10;8.10;;;16.20;99.90;;;;;;447258;266;29424;-67
2021/06/16 04:00:52;;;;;;;10.60;9.50;;;16.20;99.90;;;;;;450038;264;28937;-66
2021/06/16 04:02:53;;;;;;;8.80;7.90;;;16.20;99.90;;;;;;447164;265;29066;-65
2021/06/16 04:04:54;;;;;;;7.90;7.10;;;16.20;99.90;;;;;;450011;264;29449;-65
2021/06/16 04:06:55;;;;;;;8.93;8.10;;;16.30;99.90;;;;;;447211;266;29620;-65
2021/06/16 04:08:57;;;;;;;9.47;7.80;;;16.30;99.90;;;;;;446457;266;29639;-67
2021/06/16 04:10:58;;;;;;;9.40;8.20;;;16.40;99.90;;;;;;448401;264;29082;-65
2021/06/16 04:12:59;;;;;;;8.30;7.50;;;16.50;99.90;;;;;;448407;265;29045;-66
2021/06/16 04:15:00;;;;;;;8.73;7.83;;;16.40;99.90;;;;;;450602;264;28998;-65
2021/06/16 04:17:02;;;;;;;10.50;8.30;;;16.40;99.90;;;;;;450580;263;29029;-65
2021/06/16 04:19:03;;;;;;;9.00;8.10;;;16.40;99.90;;;;;;450609;264;29174;-67
2021/06/16 04:21:04;;;;;;;8.77;7.97;;;16.50;99.90;;;;;;450604;263;28987;-66
2021/06/16 04:23:05;;;;;;;9.10;8.20;;;16.50;99.90;;;;;;450626;263;29129;-66
2021/06/16 04:25:07;;;;;;;9.93;8.53;;;16.50;99.90;;;;;;450636;263;28983;-65
2021/06/16 04:27:08;;;;;;;8.90;8.07;;;16.60;99.90;;;;;;450599;264;29129;-65
2021/06/16 04:29:09;;;;;;;9.27;8.13;;;16.70;99.90;;;;;;450587;264;29478;-67
2021/06/16 04:31:10;;;;;;;9.50;8.60;;;16.70;99.90;;;;;;450575;264;29402;-65
2021/06/16 04:33:12;;;;;;;10.23;9.10;;;16.80;99.90;;;;;;450513;263;29587;-67
2021/06/16 04:35:13;;;;;;;9.40;8.50;;;16.80;99.90;;;;;;450467;264;29079;-65
2021/06/16 04:37:14;;;;;;;9.67;8.67;;;16.80;99.90;;;;;;450389;264;29133;-65
2021/06/16 04:39:18;;;;;;;8.83;8.03;;;16.70;99.90;;;;;;450417;263;29033;-66
2021/06/16 04:41:18;;;;;;;11.37;9.20;;;16.70;99.90;;;;;;450297;264;29077;-65
2021/06/16 04:43:19;;;;;;;10.27;9.27;;;16.60;99.90;;;;;;450541;263;30122;-65
2021/06/16 04:45:21;;;;;;;10.43;8.70;;;16.50;99.90;;;;;;450576;264;30388;-66
2021/06/16 04:47:22;;;;;;;13.43;8.63;;;16.50;99.90;;;;;;450599;263;29585;-66
2021/06/16 04:49:23;;;;;;;9.03;8.27;;;16.50;99.90;;;;;;450575;264;29000;-66
2021/06/16 04:51:24;;;;;;;9.57;8.70;;;16.50;99.90;;;;;;450597;263;29017;-65
2021/06/16 04:53:26;;;;;;;9.33;7.43;;;16.40;99.90;;;;;;450580;259;29101;-65
2021/06/16 04:55:27;;;;;;;8.30;7.60;;;16.60;99.90;;;;;;450590;264;28945;-66
2021/06/16 04:57:28;;;;;;;8.90;8.03;;;16.70;99.90;;;;;;450587;263;29052;-67
2021/06/16 04:59:29;;;;;;;9.57;8.67;;;16.70;99.90;;;;;;450586;263;29014;-65
2021/06/16 05:01:31;;;;;;;8.97;8.20;;;16.70;99.90;;;;;;450563;263;29148;-65
2021/06/16 05:03:32;;;;;;;9.63;8.40;;;16.70;99.90;;;;;;450558;263;29443;-65
2021/06/16 05:05:33;;;;;;;9.30;8.40;;;16.60;99.90;;;;;;450562;264;28980;-65
2021/06/16 05:07:34;;;;;;;8.80;8.00;;;16.70;99.90;;;;;;450591;263;29554;-67
2021/06/16 05:09:36;;;;;;;9.20;8.30;;;16.70;99.90;;;;;;450562;264;29596;-67
2021/06/16 05:11:37;;;;;;;9.40;8.50;;;16.70;99.90;;;;;;450590;264;29619;-66
2021/06/16 05:13:38;;;;;;;10.40;9.40;;;16.70;99.90;;;;;;450598;264;29995;-65
2021/06/16 05:15:39;;;;;;;9.30;8.40;;;16.80;99.90;;;;;;450622;263;29097;-65
2021/06/16 05:17:41;;;;;;;12.20;9.90;;;16.80;99.90;;;;;;450591;263;29040;-66
2021/06/16 05:19:44;;;;;;;8.60;7.80;;;16.90;99.90;;;;;;450565;264;28988;-65
2021/06/16 05:21:43;;;;;;;10.57;7.20;;;17.00;99.90;;;;;;450486;264;29008;-66
2021/06/16 05:23:44;;;;;;;9.83;8.83;;;17.00;99.90;;;;;;450598;263;28992;-66
2021/06/16 05:25:48;;;;;;;11.80;8.57;;;17.10;99.90;;;;;;450593;264;28899;-65
2021/06/16 05:27:47;;;;;;;8.63;7.83;;;17.10;99.90;;;;;;450454;264;29100;-66
2021/06/16 05:29:51;;;;;;;9.40;8.40;;;17.10;99.90;;;;;;450548;264;29442;-66
2021/06/16 05:31:49;;;;;;;9.00;8.10;;;17.30;99.90;;;;;;450463;264;29499;-66
2021/06/16 05:33:51;;;;;;;9.73;8.83;;;17.30;99.90;;;;;;450581;264;29560;-65
2021/06/16 05:35:52;;;;;;;9.00;8.20;;;17.40;99.90;;;;;;450603;259;29050;-66
2021/06/16 05:37:53;;;;;;;9.67;8.77;;;17.50;99.90;;;;;;450545;263;29022;-67
2021/06/16 05:39:54;;;;;;;10.87;8.33;;;17.50;99.90;;;;;;450566;264;29076;-65
2021/06/16 05:41:56;;;;;;;8.73;7.90;;;17.60;99.90;;;;;;450600;263;29027;-66
2021/06/16 05:43:57;;;;;;;9.37;8.40;;;17.60;99.90;;;;;;450587;263;29013;-65
2021/06/16 05:45:58;;;;;;;10.27;9.33;;;17.70;99.90;;;;;;450604;264;29040;-66
2021/06/16 05:47:59;;;;;;;8.33;7.63;;;17.80;99.90;;;;;;450625;264;28944;-67
2021/06/16 05:50:01;;;;;;;9.70;8.73;;;17.80;99.90;;;;;;450632;263;28915;-65
2021/06/16 05:52:02;;;;;;;10.40;8.97;;;17.90;99.90;;;;;;450623;263;29501;-65
2021/06/16 05:54:09;;;;;;;9.60;8.07;;;18.00;99.90;;;;;;450557;263;29419;-66
2021/06/16 05:56:04;;;;;;;9.20;8.40;;;18.10;99.90;;;;;;450208;264;29473;-66
2021/06/16 05:58:06;;;;;;;11.87;8.93;;;18.20;99.90;;;;;;450635;263;29041;-67
2021/06/16 06:00:07;;;;;;;11.77;9.10;;;18.30;99.90;;;;;;450599;264;29090;-65
2021/06/16 06:02:08;;;;;;;9.67;8.77;;;18.30;99.90;;;;;;450595;264;29018;-66
2021/06/16 06:04:09;;;;;;;8.77;7.73;;;18.40;99.90;;;;;;450577;264;28995;-66
2021/06/16 06:06:11;;;;;;;9.70;8.70;;;18.50;99.90;;;;;;450654;263;29010;-65
2021/06/16 06:08:12;;;;;;;11.00;9.63;;;18.50;99.90;;;;;;450609;263;29138;-66
2021/06/16 06:10:13;;;;;;;9.27;8.37;;;18.60;99.90;;;;;;450581;264;29108;-66
2021/06/16 06:12:14;;;;;;;9.40;8.50;;;18.70;99.90;;;;;;450590;264;29036;-66
2021/06/16 06:14:16;;;;;;;9.73;8.83;;;18.70;99.90;;;;;;450593;263;30439;-65
2021/06/16 06:16:17;;;;;;;10.23;9.23;;;18.80;99.90;;;;;;450614;263;29590;-65
2021/06/16 06:18:18;;;;;;;9.23;8.33;;;18.90;99.90;;;;;;450629;263;29570;-66
2021/06/16 06:20:19;;;;;;;9.30;8.40;;;18.90;99.90;;;;;;450611;264;29033;-66
2021/06/16 06:22:21;;;;;;;9.83;8.83;;;19.00;99.90;;;;;;450627;263;29013;-66
2021/06/16 06:24:23;;;;;;;16.70;9.00;;;19.00;99.90;;;;;;450596;264;29137;-65
2021/06/16 06:26:23;;;;;;;9.07;8.27;;;19.20;99.90;;;;;;450625;263;28872;-66
2021/06/16 06:28:24;;;;;;;8.60;7.80;;;19.20;99.90;;;;;;450609;263;29049;-67
2021/06/16 06:30:26;;;;;;;8.43;7.73;;;19.30;99.90;;;;;;450619;263;29009;-65
2021/06/16 06:32:27;;;;;;;12.23;9.07;;;19.40;99.90;;;;;;450599;264;29026;-66
2021/06/16 06:34:28;;;;;;;8.77;7.90;;;19.50;99.90;;;;;;450574;264;28991;-66
2021/06/16 06:36:29;;;;;;;10.20;9.20;;;19.60;99.90;;;;;;450587;264;29441;-66
2021/06/16 06:38:31;;;;;;;9.00;8.20;;;19.70;99.90;;;;;;450609;263;29594;-67
2021/06/16 06:40:32;;;;;;;8.77;7.97;;;19.80;99.90;;;;;;450616;264;29501;-66
2021/06/16 06:42:33;;;;;;;10.00;8.23;;;19.80;99.90;;;;;;450593;264;29028;-66
2021/06/16 06:44:34;;;;;;;9.80;8.80;;;19.80;99.90;;;;;;450611;264;29000;-65
2021/06/16 06:46:36;;;;;;;8.63;7.87;;;19.90;99.90;;;;;;450602;263;29091;-66
2021/06/16 06:48:37;;;;;;;9.13;8.00;;;19.90;99.90;;;;;;450634;263;29037;-68
2021/06/16 06:50:38;;;;;;;9.70;8.70;;;20.00;99.90;;;;;;450596;264;29099;-65
2021/06/16 06:52:39;;;;;;;9.07;8.27;;;20.10;99.90;;;;;;450600;263;29045;-66
2021/06/16 06:54:41;;;;;;;9.30;8.40;;;20.10;99.90;;;;;;450592;263;28985;-66
2021/06/16 06:56:42;;;;;;;9.17;8.27;;;20.20;99.90;;;;;;450630;264;29038;-66
2021/06/16 06:58:43;;;;;;;8.77;7.87;;;20.20;99.90;;;;;;450527;263;29509;-68
2021/06/16 07:00:45;;;;;;;7.33;6.63;;;20.30;99.90;;;;;;450635;264;29077;-66
2021/06/16 07:02:47;;;;;;;8.43;6.77;;;20.40;99.90;;;;;;450616;263;29017;-66
2021/06/16 07:04:47;;;;;;;11.57;5.00;;;20.70;99.90;;;;;;450562;263;29017;-66
2021/06/16 07:06:48;;;;;;;4.40;3.83;;;21.30;99.90;;;;;;450609;263;29039;-66
2021/06/16 07:08:50;;;;;;;5.07;4.00;;;21.70;99.90;;;;;;450630;263;29049;-67
2021/06/16 07:10:51;;;;;;;4.97;4.40;;;21.70;99.90;;;;;;450618;263;29105;-66
2021/06/16 07:12:52;;;;;;;5.30;4.20;;;21.80;99.90;;;;;;450631;263;29510;-66
2021/06/16 07:14:55;;;;;;;4.10;3.80;;;22.10;99.90;;;;;;450627;264;29430;-66
2021/06/16 07:16:55;;;;;;;3.90;3.57;;;21.90;99.90;;;;;;450530;264;29588;-66
2021/06/16 07:18:56;;;;;;;4.10;3.67;;;22.10;99.90;;;;;;450593;263;28939;-68
2021/06/16 07:20:57;;;;;;;8.30;4.20;;;22.30;99.90;;;;;;450585;264;29070;-65
2021/06/16 07:22:58;;;;;;;6.47;3.70;;;22.30;99.90;;;;;;450594;264;29104;-67
2021/06/16 07:25:00;;;;;;;6.07;3.63;;;22.50;99.90;;;;;;450601;263;29100;-66
2021/06/16 07:27:01;;;;;;;5.93;4.20;;;22.60;99.90;;;;;;450609;263;29067;-66
2021/06/16 07:29:02;;;;;;;9.70;4.20;;;22.70;99.90;;;;;;450624;263;28969;-66
2021/06/16 07:31:03;;;;;;;4.40;3.40;;;22.90;99.90;;;;;;450609;264;29012;-67
2021/06/16 07:33:05;;;;;;;4.00;3.63;;;22.70;99.90;;;;;;450616;264;29022;-67
2021/06/16 07:35:06;;;;;;;6.43;4.10;;;22.60;99.90;;;;;;450594;263;28983;-66
2021/06/16 07:37:07;;;;;;;7.13;4.27;;;22.60;99.90;;;;;;450587;263;29359;-66
2021/06/16 07:39:08;;;;;;;7.00;4.20;;;22.70;99.90;;;;;;450622;263;29465;-67
2021/06/16 07:41:10;;;;;;;8.00;4.33;;;22.80;99.90;;;;;;450606;264;29534;-66
2021/06/16 07:43:11;;;;;;;4.10;3.80;;;22.60;99.90;;;;;;450609;263;29003;-66
2021/06/16 07:45:12;;;;;;;3.90;3.60;;;22.60;99.90;;;;;;450555;264;29014;-65
2021/06/16 07:47:13;;;;;;;4.67;3.70;;;22.70;99.90;;;;;;450604;264;29051;-66
2021/06/16 07:49:15;;;;;;;10.40;4.13;;;22.60;99.90;;;;;;450580;263;29090;-67
2021/06/16 07:51:16;;;;;;;8.60;3.83;;;22.60;99.90;;;;;;450563;263;29031;-66
2021/06/16 07:53:17;;;;;;;4.37;3.60;;;22.90;99.90;;;;;;450537;263;29143;-65
2021/06/16 07:55:18;;;;;;;3.83;3.43;;;22.80;99.90;;;;;;450590;264;29487;-67
2021/06/16 07:57:20;;;;;;;4.50;4.10;;;22.70;99.90;;;;;;450640;263;28968;-66
2021/06/16 07:59:21;;;;;;;4.13;3.73;;;23.00;99.90;;;;;;450620;263;29609;-67
2021/06/16 08:01:22;;;;;;;4.10;3.70;;;23.30;99.90;;;;;;450614;264;29517;-66
2021/06/16 08:03:23;;;;;;;3.97;3.57;;;23.40;99.90;;;;;;450586;264;29501;-66
2021/06/16 08:05:25;;;;;;;5.13;3.57;;;23.50;99.90;;;;;;450639;259;29573;-67
2021/06/16 08:07:26;;;;;;;7.17;4.03;;;23.50;99.90;;;;;;450647;263;28976;-66
2021/06/16 08:09:27;;;;;;;5.90;4.10;;;23.40;99.90;;;;;;450619;263;29014;-67
2021/06/16 08:11:28;;;;;;;4.43;4.00;;;23.40;99.90;;;;;;450592;264;29041;-66
2021/06/16 08:13:30;;;;;;;7.33;4.00;;;23.50;99.90;;;;;;450597;264;28990;-66
2021/06/16 08:15:32;;;;;;;6.60;4.10;;;23.60;99.90;;;;;;450630;263;29026;-68
2021/06/16 08:17:32;;;;;;;4.87;3.80;;;24.00;99.90;;;;;;450530;264;29089;-66
2021/06/16 08:19:33;;;;;;;4.97;3.90;;;24.10;99.90;;;;;;450601;264;29002;-66
2021/06/16 08:21:35;;;;;;;5.13;4.03;;;24.00;99.90;;;;;;450600;264;29087;-65
2021/06/16 08:23:36;;;;;;;5.10;4.00;;;24.00;99.90;;;;;;450597;263;29019;-66
2021/06/16 08:25:37;;;;;;;4.10;3.67;;;24.00;99.90;;;;;;450614;262;29502;-67
2021/06/16 08:27:38;;;;;;;3.87;3.57;;;23.90;99.90;;;;;;450595;264;30168;-66
2021/06/16 08:29:40;;;;;;;5.60;3.50;;;24.20;99.90;;;;;;450626;263;29482;-66
2021/06/16 08:31:41;;;;;;;3.60;3.30;;;24.10;99.90;;;;;;450596;263;29043;-67
2021/06/16 08:33:42;;;;;;;3.57;3.27;;;24.00;99.90;;;;;;450583;264;29022;-66
2021/06/16 08:35:43;;;;;;;5.37;3.20;;;24.00;99.90;;;;;;450534;263;28955;-68
2021/06/16 08:37:46;;;;;;;3.70;3.40;;;24.00;99.90;;;;;;450623;264;28975;-66
2021/06/16 08:39:46;;;;;;;9.37;3.63;;;24.20;99.90;;;;;;450571;264;29082;-67
2021/06/16 08:41:47;;;;;;;3.20;3.00;;;24.20;99.90;;;;;;450586;264;28991;-66
2021/06/16 08:43:48;;;;;;;4.00;3.30;;;24.10;99.90;;;;;;450628;263;29042;-66
2021/06/16 08:45:50;;;;;;;5.03;3.40;;;24.10;99.90;;;;;;450630;264;29027;-68
2021/06/16 08:47:51;;;;;;;5.20;3.20;;;24.30;99.90;;;;;;450595;264;29459;-66
2021/06/16 08:49:53;;;;;;;3.40;3.20;;;24.40;99.90;;;;;;450588;263;29548;-66
2021/06/16 08:51:54;;;;;;;3.63;3.23;;;24.30;99.90;;;;;;450573;263;29546;-66
2021/06/16 08:53:55;;;;;;;4.83;3.80;;;24.30;99.90;;;;;;450606;263;29548;-67
2021/06/16 08:55:56;;;;;;;4.20;3.30;;;24.80;99.90;;;;;;450608;263;29017;-68
2021/06/16 08:57:57;;;;;;;3.67;3.37;;;24.90;99.90;;;;;;450610;263;29080;-66
2021/06/16 08:59:58;;;;;;;3.50;3.20;;;24.90;99.90;;;;;;450594;264;29027;-68
2021/06/16 09:02:00;;;;;;;3.73;3.20;;;24.90;99.90;;;;;;450584;264;29001;-66
2021/06/16 09:04:01;;;;;;;3.60;3.30;;;25.00;99.90;;;;;;450586;264;29020;-66
2021/06/16 09:06:02;;;;;;;3.63;2.97;;;25.10;99.90;;;;;;450595;263;29108;-67
2021/06/16 09:08:03;;;;;;;7.00;3.70;;;25.00;99.90;;;;;;450596;264;29095;-67
2021/06/16 09:10:05;;;;;;;3.80;3.30;;;25.20;99.90;;;;;;450597;263;29091;-66
2021/06/16 09:12:07;;;;;;;3.27;2.97;;;25.00;99.90;;;;;;450593;263;29405;-66
2021/06/16 09:14:07;;;;;;;3.17;2.90;;;24.80;99.90;;;;;;450570;264;29546;-67
2021/06/16 09:16:08;;;;;;;3.00;2.80;;;25.00;99.90;;;;;;450432;264;30212;-66
2021/06/16 09:18:12;;;;;;;3.60;3.30;;;25.10;99.90;;;;;;450597;264;29423;-67
2021/06/16 09:20:11;;;;;;;2.90;2.70;;;25.30;99.90;;;;;;450496;264;29023;-66
2021/06/16 09:22:12;;;;;;;3.87;3.03;;;25.30;99.90;;;;;;450626;263;29102;-66
2021/06/16 09:24:13;;;;;;;2.97;2.77;;;25.60;99.90;;;;;;450585;264;29099;-66
2021/06/16 09:26:15;;;;;;;4.70;3.23;;;25.50;99.90;;;;;;450555;263;28980;-66
2021/06/16 09:28:16;;;;;;;2.80;2.60;;;25.30;99.90;;;;;;450484;262;29111;-67
2021/06/16 09:30:17;;;;;;;2.63;2.43;;;25.20;99.90;;;;;;450607;263;29127;-67
2021/06/16 09:32:18;;;;;;;4.00;3.03;;;25.50;99.90;;;;;;450591;264;29105;-66
2021/06/16 09:34:20;;;;;;;2.77;2.57;;;25.40;99.90;;;;;;450570;264;29098;-66
2021/06/16 09:36:21;;;;;;;3.37;2.90;;;25.30;99.90;;;;;;450610;263;28974;-67
2021/06/16 09:38:23;;;;;;;2.90;2.33;;;25.40;99.90;;;;;;450603;264;29560;-67
2021/06/16 09:40:23;;;;;;;2.73;2.53;;;25.50;99.90;;;;;;450531;264;29577;-67
2021/06/16 09:42:25;;;;;;;2.60;2.43;;;25.80;99.90;;;;;;450595;264;29436;-66
2021/06/16 09:44:26;;;;;;;3.10;2.80;;;25.70;99.90;;;;;;450612;263;29044;-67
2021/06/16 09:46:27;;;;;;;2.77;2.53;;;25.70;99.90;;;;;;450641;263;28981;-66
2021/06/16 09:48:29;;;;;;;3.67;2.57;;;25.60;99.90;;;;;;450606;263;29012;-66
2021/06/16 09:50:30;;;;;;;2.87;2.57;;;25.60;99.90;;;;;;450638;263;28938;-68
2021/06/16 09:52:31;;;;;;;3.30;2.47;;;25.50;99.90;;;;;;450600;264;28992;-66
2021/06/16 09:54:32;;;;;;;7.10;3.00;;;25.60;99.90;;;;;;450588;263;29073;-66
2021/06/16 09:56:33;;;;;;;4.73;3.07;;;25.80;99.90;;;;;;443373;268;29026;-66
2021/06/16 09:58:35;;;;;;;2.23;2.13;;;26.00;99.90;;;;;;457336;260;28947;-67
2021/06/16 10:00:36;;;;;;;4.20;3.10;;;25.90;99.90;;;;;;443367;268;29013;-67
2021/06/16 10:02:40;;;;;;;2.60;2.27;;;25.80;99.90;;;;;;457352;259;29359;-66
2021/06/16 10:04:41;;;;;;;4.63;3.27;;;25.80;99.90;;;;;;450670;264;29488;-66
2021/06/16 10:06:40;;;;;;;5.63;3.37;;;25.90;99.90;;;;;;450771;264;29496;-67
2021/06/16 10:08:44;;;;;;;4.80;2.90;;;26.20;99.90;;;;;;450901;264;28989;-66
2021/06/16 10:10:45;;;;;;;3.80;2.67;;;26.50;99.70;;;;;;450909;264;29069;-66
2021/06/16 10:12:47;;;;;;;3.27;2.73;;;26.60;97.20;;;;;;450921;264;29021;-67
2021/06/16 10:14:48;;;;;;;2.90;2.70;;;26.50;98.50;;;;;;450907;264;28984;-67
2021/06/16 10:16:49;;;;;;;2.67;2.47;;;26.60;98.40;;;;;;450893;264;29086;-66
2021/06/16 10:18:50;;;;;;;3.90;2.97;;;26.60;99.60;;;;;;450931;264;29025;-69
2021/06/16 10:20:52;;;;;;;3.00;2.80;;;26.60;99.10;;;;;;450924;264;29041;-66
2021/06/16 10:22:53;;;;;;;6.00;3.30;;;26.60;99.90;;;;;;450906;264;29063;-67
2021/06/16 10:24:54;;;;;;;3.83;2.90;;;26.60;99.80;;;;;;450900;264;29088;-67
2021/06/16 10:26:55;;;;;;;3.20;2.57;;;26.60;98.80;;;;;;450837;264;29447;-65
2021/06/16 10:28:57;;;;;;;2.83;2.60;;;26.60;97.70;;;;;;450900;264;29518;-68
2021/06/16 10:30:58;;;;;;;3.63;2.53;;;26.50;97.50;;;;;;450912;264;29502;-67